sensor_id;sensor_type;location;lat;lon;timestamp;P1;durP1;ratioP1;P2;durP2;ratioP2
61336;SDS011;47212;41.326;2.104;2022-09-09T00:00:14;5.25;;;2.55;;
61336;SDS011;47212;41.326;2.104;2022-09-09T00:05:23;5.15;;;2.83;;
61336;SDS011;47212;41.326;2.104;2022-09-09T00:10:51;8.38;;;2.20;;
61336;SDS011;47212;41.326;2.104;2022-09-09T00:21:36;8.15;;;2.65;;
61336;SDS011;47212;41.326;2.104;2022-09-09T00:26:48;7.05;;;3.28;;
61336;SDS011;47212;41.326;2.104;2022-09-09T00:31:55;9.82;;;3.70;;
61336;SDS011;47212;41.326;2.104;2022-09-09T00:37:01;8.02;;;3.10;;
61336;SDS011;47212;41.326;2.104;2022-09-09T00:42:18;8.02;;;2.80;;
61336;SDS011;47212;41.326;2.104;2022-09-09T00:47:44;7.93;;;2.70;;
61336;SDS011;47212;41.326;2.104;2022-09-09T00:58:21;8.52;;;2.58;;
61336;SDS011;47212;41.326;2.104;2022-09-09T01:14:01;6.80;;;2.72;;
61336;SDS011;47212;41.326;2.104;2022-09-09T01:19:49;10.15;;;3.53;;
61336;SDS011;47212;41.326;2.104;2022-09-09T01:30:45;6.95;;;3.35;;
61336;SDS011;47212;41.326;2.104;2022-09-09T01:35:52;9.48;;;3.53;;
61336;SDS011;47212;41.326;2.104;2022-09-09T01:41:10;6.30;;;3.20;;
61336;SDS011;47212;41.326;2.104;2022-09-09T01:46:35;7.35;;;3.33;;
61336;SDS011;47212;41.326;2.104;2022-09-09T01:51:39;8.50;;;3.10;;
61336;SDS011;47212;41.326;2.104;2022-09-09T01:56:54;8.40;;;3.13;;
61336;SDS011;47212;41.326;2.104;2022-09-09T02:07:19;7.43;;;3.13;;
61336;SDS011;47212;41.326;2.104;2022-09-09T02:13:19;5.18;;;2.53;;
61336;SDS011;47212;41.326;2.104;2022-09-09T02:18:24;7.03;;;2.58;;
61336;SDS011;47212;41.326;2.104;2022-09-09T02:23:32;5.07;;;2.75;;
61336;SDS011;47212;41.326;2.104;2022-09-09T02:28:40;9.05;;;2.80;;
61336;SDS011;47212;41.326;2.104;2022-09-09T02:33:48;6.38;;;2.97;;
61336;SDS011;47212;41.326;2.104;2022-09-09T02:44:42;7.90;;;3.15;;
61336;SDS011;47212;41.326;2.104;2022-09-09T02:55:07;7.47;;;3.00;;
61336;SDS011;47212;41.326;2.104;2022-09-09T03:00:26;7.30;;;2.80;;
61336;SDS011;47212;41.326;2.104;2022-09-09T03:07:26;6.72;;;2.72;;
61336;SDS011;47212;41.326;2.104;2022-09-09T03:12:37;11.48;;;4.15;;
61336;SDS011;47212;41.326;2.104;2022-09-09T03:17:46;6.50;;;2.87;;
61336;SDS011;47212;41.326;2.104;2022-09-09T03:22:56;8.10;;;2.70;;
61336;SDS011;47212;41.326;2.104;2022-09-09T03:28:02;8.48;;;2.90;;
61336;SDS011;47212;41.326;2.104;2022-09-09T03:33:08;3.65;;;2.35;;
61336;SDS011;47212;41.326;2.104;2022-09-09T03:38:21;9.20;;;2.85;;
61336;SDS011;47212;41.326;2.104;2022-09-09T03:43:35;11.57;;;3.00;;
61336;SDS011;47212;41.326;2.104;2022-09-09T03:49:02;7.35;;;2.85;;
61336;SDS011;47212;41.326;2.104;2022-09-09T03:54:07;9.52;;;2.78;;
61336;SDS011;47212;41.326;2.104;2022-09-09T03:59:21;7.22;;;2.70;;
61336;SDS011;47212;41.326;2.104;2022-09-09T04:04:32;4.15;;;2.60;;
61336;SDS011;47212;41.326;2.104;2022-09-09T04:09:45;7.78;;;3.10;;
61336;SDS011;47212;41.326;2.104;2022-09-09T04:15:01;6.70;;;3.35;;
61336;SDS011;47212;41.326;2.104;2022-09-09T04:20:12;7.75;;;3.20;;
61336;SDS011;47212;41.326;2.104;2022-09-09T04:25:15;8.02;;;2.88;;
61336;SDS011;47212;41.326;2.104;2022-09-09T04:30:19;6.18;;;2.80;;
61336;SDS011;47212;41.326;2.104;2022-09-09T04:35:24;5.93;;;2.55;;
61336;SDS011;47212;41.326;2.104;2022-09-09T04:40:31;7.10;;;3.00;;
61336;SDS011;47212;41.326;2.104;2022-09-09T04:45:39;8.57;;;3.20;;
61336;SDS011;47212;41.326;2.104;2022-09-09T04:51:07;6.75;;;2.92;;
61336;SDS011;47212;41.326;2.104;2022-09-09T04:56:18;6.70;;;2.83;;
61336;SDS011;47212;41.326;2.104;2022-09-09T05:01:30;6.60;;;2.80;;
61336;SDS011;47212;41.326;2.104;2022-09-09T05:07:01;12.70;;;3.47;;
61336;SDS011;47212;41.326;2.104;2022-09-09T05:12:08;10.85;;;3.60;;
61336;SDS011;47212;41.326;2.104;2022-09-09T05:17:21;8.20;;;3.22;;
61336;SDS011;47212;41.326;2.104;2022-09-09T05:22:24;7.65;;;3.13;;
61336;SDS011;47212;41.326;2.104;2022-09-09T05:27:37;10.43;;;2.53;;
61336;SDS011;47212;41.326;2.104;2022-09-09T05:32:50;6.22;;;2.55;;
61336;SDS011;47212;41.326;2.104;2022-09-09T05:37:59;6.38;;;2.65;;
61336;SDS011;47212;41.326;2.104;2022-09-09T05:43:13;7.00;;;2.75;;
61336;SDS011;47212;41.326;2.104;2022-09-09T05:48:21;5.13;;;2.60;;
61336;SDS011;47212;41.326;2.104;2022-09-09T05:53:30;5.78;;;2.90;;
61336;SDS011;47212;41.326;2.104;2022-09-09T05:58:48;8.85;;;3.22;;
61336;SDS011;47212;41.326;2.104;2022-09-09T06:03:57;8.15;;;2.70;;
61336;SDS011;47212;41.326;2.104;2022-09-09T06:09:07;8.73;;;2.88;;
61336;SDS011;47212;41.326;2.104;2022-09-09T06:14:19;8.18;;;3.15;;
61336;SDS011;47212;41.326;2.104;2022-09-09T06:19:29;5.53;;;2.22;;
61336;SDS011;47212;41.326;2.104;2022-09-09T06:24:36;7.03;;;3.08;;
61336;SDS011;47212;41.326;2.104;2022-09-09T06:29:50;7.30;;;2.65;;
61336;SDS011;47212;41.326;2.104;2022-09-09T06:35:08;8.05;;;3.20;;
61336;SDS011;47212;41.326;2.104;2022-09-09T06:40:13;8.27;;;3.25;;
61336;SDS011;47212;41.326;2.104;2022-09-09T06:45:26;9.05;;;3.28;;
61336;SDS011;47212;41.326;2.104;2022-09-09T06:50:46;9.55;;;3.13;;
61336;SDS011;47212;41.326;2.104;2022-09-09T06:55:55;8.18;;;3.60;;
61336;SDS011;47212;41.326;2.104;2022-09-09T07:06:21;8.80;;;3.22;;
61336;SDS011;47212;41.326;2.104;2022-09-09T07:11:42;12.40;;;4.30;;
61336;SDS011;47212;41.326;2.104;2022-09-09T07:16:57;5.88;;;3.30;;
61336;SDS011;47212;41.326;2.104;2022-09-09T07:22:15;10.45;;;3.53;;
61336;SDS011;47212;41.326;2.104;2022-09-09T07:27:25;7.65;;;3.65;;
61336;SDS011;47212;41.326;2.104;2022-09-09T07:32:40;9.98;;;3.83;;
61336;SDS011;47212;41.326;2.104;2022-09-09T07:37:45;9.20;;;3.90;;
61336;SDS011;47212;41.326;2.104;2022-09-09T07:42:56;5.68;;;3.42;;
61336;SDS011;47212;41.326;2.104;2022-09-09T07:48:14;9.57;;;3.17;;
61336;SDS011;47212;41.326;2.104;2022-09-09T07:53:27;6.32;;;3.25;;
61336;SDS011;47212;41.326;2.104;2022-09-09T07:59:18;9.77;;;3.38;;
61336;SDS011;47212;41.326;2.104;2022-09-09T08:04:27;9.30;;;3.28;;
61336;SDS011;47212;41.326;2.104;2022-09-09T08:09:36;11.90;;;3.70;;
61336;SDS011;47212;41.326;2.104;2022-09-09T08:15:02;12.23;;;3.28;;
61336;SDS011;47212;41.326;2.104;2022-09-09T08:20:11;11.15;;;3.53;;
61336;SDS011;47212;41.326;2.104;2022-09-09T08:25:16;14.82;;;3.05;;
61336;SDS011;47212;41.326;2.104;2022-09-09T08:30:23;10.23;;;3.05;;
61336;SDS011;47212;41.326;2.104;2022-09-09T08:35:29;5.40;;;2.50;;
61336;SDS011;47212;41.326;2.104;2022-09-09T08:40:42;9.48;;;3.42;;
61336;SDS011;47212;41.326;2.104;2022-09-09T08:46:09;9.85;;;3.17;;
61336;SDS011;47212;41.326;2.104;2022-09-09T08:51:34;8.48;;;3.55;;
61336;SDS011;47212;41.326;2.104;2022-09-09T08:57:07;5.00;;;2.65;;
61336;SDS011;47212;41.326;2.104;2022-09-09T09:19:26;7.57;;;2.83;;
61336;SDS011;47212;41.326;2.104;2022-09-09T09:24:55;7.27;;;3.00;;
61336;SDS011;47212;41.326;2.104;2022-09-09T09:30:22;9.32;;;3.20;;
61336;SDS011;47212;41.326;2.104;2022-09-09T09:35:41;7.65;;;3.25;;
61336;SDS011;47212;41.326;2.104;2022-09-09T09:40:57;6.68;;;3.00;;
61336;SDS011;47212;41.326;2.104;2022-09-09T09:46:21;4.75;;;2.33;;
61336;SDS011;47212;41.326;2.104;2022-09-09T09:51:46;9.43;;;2.63;;
61336;SDS011;47212;41.326;2.104;2022-09-09T09:57:18;9.20;;;2.55;;
61336;SDS011;47212;41.326;2.104;2022-09-09T10:02:39;8.35;;;2.65;;
61336;SDS011;47212;41.326;2.104;2022-09-09T10:13:38;6.78;;;2.38;;
61336;SDS011;47212;41.326;2.104;2022-09-09T10:19:09;5.63;;;2.28;;
61336;SDS011;47212;41.326;2.104;2022-09-09T10:30:26;4.80;;;1.85;;
61336;SDS011;47212;41.326;2.104;2022-09-09T10:41:31;5.38;;;2.25;;
61336;SDS011;47212;41.326;2.104;2022-09-09T10:47:55;9.27;;;2.33;;
61336;SDS011;47212;41.326;2.104;2022-09-09T10:59:31;5.10;;;2.13;;
61336;SDS011;47212;41.326;2.104;2022-09-09T11:05:56;7.22;;;2.65;;
61336;SDS011;47212;41.326;2.104;2022-09-09T11:11:25;3.95;;;2.13;;
61336;SDS011;47212;41.326;2.104;2022-09-09T11:16:46;8.77;;;2.70;;
61336;SDS011;47212;41.326;2.104;2022-09-09T11:22:37;9.45;;;2.42;;
61336;SDS011;47212;41.326;2.104;2022-09-09T11:38:53;11.10;;;2.13;;
61336;SDS011;47212;41.326;2.104;2022-09-09T11:44:54;3.83;;;1.70;;
61336;SDS011;47212;41.326;2.104;2022-09-09T11:55:33;6.55;;;2.67;;
61336;SDS011;47212;41.326;2.104;2022-09-09T12:00:47;12.93;;;2.95;;
61336;SDS011;47212;41.326;2.104;2022-09-09T12:05:55;8.05;;;2.42;;
61336;SDS011;47212;41.326;2.104;2022-09-09T12:11:03;6.32;;;2.35;;
61336;SDS011;47212;41.326;2.104;2022-09-09T12:16:39;8.20;;;2.17;;
61336;SDS011;47212;41.326;2.104;2022-09-09T12:22:01;5.23;;;1.97;;
61336;SDS011;47212;41.326;2.104;2022-09-09T12:27:34;4.47;;;2.13;;
61336;SDS011;47212;41.326;2.104;2022-09-09T12:32:46;5.97;;;2.30;;
61336;SDS011;47212;41.326;2.104;2022-09-09T12:37:56;9.18;;;2.20;;
61336;SDS011;47212;41.326;2.104;2022-09-09T12:43:32;6.75;;;2.00;;
61336;SDS011;47212;41.326;2.104;2022-09-09T12:48:46;6.38;;;2.10;;
61336;SDS011;47212;41.326;2.104;2022-09-09T12:53:59;6.53;;;2.28;;
61336;SDS011;47212;41.326;2.104;2022-09-09T13:05:18;9.13;;;2.22;;
61336;SDS011;47212;41.326;2.104;2022-09-09T13:10:59;5.82;;;1.90;;
61336;SDS011;47212;41.326;2.104;2022-09-09T13:16:41;7.55;;;1.85;;
61336;SDS011;47212;41.326;2.104;2022-09-09T13:22:10;6.20;;;2.20;;
61336;SDS011;47212;41.326;2.104;2022-09-09T13:27:28;5.53;;;2.00;;
61336;SDS011;47212;41.326;2.104;2022-09-09T13:32:41;5.55;;;2.15;;
61336;SDS011;47212;41.326;2.104;2022-09-09T13:37:51;3.88;;;1.63;;
61336;SDS011;47212;41.326;2.104;2022-09-09T13:42:58;7.45;;;2.30;;
61336;SDS011;47212;41.326;2.104;2022-09-09T13:48:10;3.42;;;1.70;;
61336;SDS011;47212;41.326;2.104;2022-09-09T13:53:25;5.90;;;2.00;;
61336;SDS011;47212;41.326;2.104;2022-09-09T13:58:31;8.57;;;2.22;;
61336;SDS011;47212;41.326;2.104;2022-09-09T14:03:47;6.70;;;2.03;;
61336;SDS011;47212;41.326;2.104;2022-09-09T14:09:03;8.43;;;2.00;;
61336;SDS011;47212;41.326;2.104;2022-09-09T14:19:15;4.97;;;1.88;;
61336;SDS011;47212;41.326;2.104;2022-09-09T14:24:22;4.78;;;1.80;;
61336;SDS011;47212;41.326;2.104;2022-09-09T14:29:35;6.80;;;1.98;;
61336;SDS011;47212;41.326;2.104;2022-09-09T14:34:46;8.52;;;2.30;;
61336;SDS011;47212;41.326;2.104;2022-09-09T14:40:00;8.70;;;2.63;;
61336;SDS011;47212;41.326;2.104;2022-09-09T14:45:11;6.20;;;1.85;;
61336;SDS011;47212;41.326;2.104;2022-09-09T14:50:22;8.50;;;2.20;;
61336;SDS011;47212;41.326;2.104;2022-09-09T14:56:06;8.35;;;2.40;;
61336;SDS011;47212;41.326;2.104;2022-09-09T15:01:35;10.23;;;2.13;;
61336;SDS011;47212;41.326;2.104;2022-09-09T15:06:44;4.47;;;1.85;;
61336;SDS011;47212;41.326;2.104;2022-09-09T15:12:01;5.97;;;2.13;;
61336;SDS011;47212;41.326;2.104;2022-09-09T15:22:20;6.10;;;1.88;;
61336;SDS011;47212;41.326;2.104;2022-09-09T15:27:50;4.63;;;1.80;;
61336;SDS011;47212;41.326;2.104;2022-09-09T15:32:55;7.75;;;1.58;;
61336;SDS011;47212;41.326;2.104;2022-09-09T15:38:05;8.47;;;2.53;;
61336;SDS011;47212;41.326;2.104;2022-09-09T15:43:29;5.80;;;2.30;;
61336;SDS011;47212;41.326;2.104;2022-09-09T15:48:46;4.50;;;1.75;;
61336;SDS011;47212;41.326;2.104;2022-09-09T15:53:57;6.40;;;1.90;;
61336;SDS011;47212;41.326;2.104;2022-09-09T15:59:01;4.10;;;1.75;;
61336;SDS011;47212;41.326;2.104;2022-09-09T16:04:09;6.47;;;2.00;;
61336;SDS011;47212;41.326;2.104;2022-09-09T16:09:17;7.43;;;1.80;;
61336;SDS011;47212;41.326;2.104;2022-09-09T16:14:33;5.25;;;1.80;;
61336;SDS011;47212;41.326;2.104;2022-09-09T16:19:43;3.50;;;1.65;;
61336;SDS011;47212;41.326;2.104;2022-09-09T16:24:55;9.07;;;2.03;;
61336;SDS011;47212;41.326;2.104;2022-09-09T16:30:01;5.05;;;1.60;;
61336;SDS011;47212;41.326;2.104;2022-09-09T16:35:16;7.65;;;1.85;;
61336;SDS011;47212;41.326;2.104;2022-09-09T16:40:20;3.92;;;1.48;;
61336;SDS011;47212;41.326;2.104;2022-09-09T16:45:25;4.78;;;1.73;;
61336;SDS011;47212;41.326;2.104;2022-09-09T16:50:38;4.80;;;1.58;;
61336;SDS011;47212;41.326;2.104;2022-09-09T16:55:47;5.28;;;1.52;;
61336;SDS011;47212;41.326;2.104;2022-09-09T17:00:57;4.65;;;1.73;;
61336;SDS011;47212;41.326;2.104;2022-09-09T17:06:27;4.53;;;1.35;;
61336;SDS011;47212;41.326;2.104;2022-09-09T17:11:37;3.65;;;1.50;;
61336;SDS011;47212;41.326;2.104;2022-09-09T17:16:45;5.75;;;1.35;;
61336;SDS011;47212;41.326;2.104;2022-09-09T17:21:56;5.82;;;1.75;;
61336;SDS011;47212;41.326;2.104;2022-09-09T17:27:20;4.60;;;1.60;;
61336;SDS011;47212;41.326;2.104;2022-09-09T17:32:33;4.53;;;1.85;;
61336;SDS011;47212;41.326;2.104;2022-09-09T17:38:27;4.20;;;1.75;;
61336;SDS011;47212;41.326;2.104;2022-09-09T17:44:02;6.13;;;1.70;;
61336;SDS011;47212;41.326;2.104;2022-09-09T17:54:18;3.70;;;1.27;;
61336;SDS011;47212;41.326;2.104;2022-09-09T17:59:22;11.27;;;1.60;;
61336;SDS011;47212;41.326;2.104;2022-09-09T18:04:45;5.82;;;1.55;;
61336;SDS011;47212;41.326;2.104;2022-09-09T18:09:52;7.27;;;1.80;;
61336;SDS011;47212;41.326;2.104;2022-09-09T18:15:20;4.82;;;1.50;;
61336;SDS011;47212;41.326;2.104;2022-09-09T18:21:02;3.90;;;1.10;;
61336;SDS011;47212;41.326;2.104;2022-09-09T18:26:18;5.43;;;1.77;;
61336;SDS011;47212;41.326;2.104;2022-09-09T18:31:32;5.53;;;1.50;;
61336;SDS011;47212;41.326;2.104;2022-09-09T18:36:40;2.90;;;1.40;;
61336;SDS011;47212;41.326;2.104;2022-09-09T18:41:54;6.68;;;1.70;;
61336;SDS011;47212;41.326;2.104;2022-09-09T18:47:07;3.73;;;1.47;;
61336;SDS011;47212;41.326;2.104;2022-09-09T18:52:18;7.53;;;2.55;;
61336;SDS011;47212;41.326;2.104;2022-09-09T18:57:25;4.03;;;1.80;;
61336;SDS011;47212;41.326;2.104;2022-09-09T19:02:40;4.32;;;1.75;;
61336;SDS011;47212;41.326;2.104;2022-09-09T19:07:53;5.90;;;1.38;;
61336;SDS011;47212;41.326;2.104;2022-09-09T19:13:04;3.97;;;1.70;;
61336;SDS011;47212;41.326;2.104;2022-09-09T19:18:18;4.25;;;1.55;;
61336;SDS011;47212;41.326;2.104;2022-09-09T19:23:32;5.32;;;1.40;;
61336;SDS011;47212;41.326;2.104;2022-09-09T19:28:34;5.90;;;1.52;;
61336;SDS011;47212;41.326;2.104;2022-09-09T19:33:39;3.55;;;1.33;;
61336;SDS011;47212;41.326;2.104;2022-09-09T19:38:44;3.60;;;1.25;;
61336;SDS011;47212;41.326;2.104;2022-09-09T19:43:58;2.92;;;1.38;;
61336;SDS011;47212;41.326;2.104;2022-09-09T19:49:06;4.63;;;1.67;;
61336;SDS011;47212;41.326;2.104;2022-09-09T19:54:14;3.05;;;1.50;;
61336;SDS011;47212;41.326;2.104;2022-09-09T19:59:21;3.40;;;1.33;;
61336;SDS011;47212;41.326;2.104;2022-09-09T20:04:29;4.38;;;1.50;;
61336;SDS011;47212;41.326;2.104;2022-09-09T20:09:33;2.97;;;1.23;;
61336;SDS011;47212;41.326;2.104;2022-09-09T20:14:37;1.70;;;1.10;;
61336;SDS011;47212;41.326;2.104;2022-09-09T20:19:48;4.30;;;1.60;;
61336;SDS011;47212;41.326;2.104;2022-09-09T20:25:00;4.32;;;1.40;;
61336;SDS011;47212;41.326;2.104;2022-09-09T20:30:08;4.25;;;1.42;;
61336;SDS011;47212;41.326;2.104;2022-09-09T20:35:25;4.65;;;1.30;;
61336;SDS011;47212;41.326;2.104;2022-09-09T20:40:37;1.92;;;1.20;;
61336;SDS011;47212;41.326;2.104;2022-09-09T20:45:43;2.53;;;1.40;;
61336;SDS011;47212;41.326;2.104;2022-09-09T20:50:53;5.40;;;1.85;;
61336;SDS011;47212;41.326;2.104;2022-09-09T20:56:25;2.72;;;1.50;;
61336;SDS011;47212;41.326;2.104;2022-09-09T21:01:46;4.00;;;1.60;;
61336;SDS011;47212;41.326;2.104;2022-09-09T21:07:01;2.95;;;1.30;;
61336;SDS011;47212;41.326;2.104;2022-09-09T21:12:09;4.68;;;1.48;;
61336;SDS011;47212;41.326;2.104;2022-09-09T21:17:15;7.13;;;1.55;;
61336;SDS011;47212;41.326;2.104;2022-09-09T21:22:20;4.57;;;1.40;;
61336;SDS011;47212;41.326;2.104;2022-09-09T21:27:32;2.55;;;1.02;;
61336;SDS011;47212;41.326;2.104;2022-09-09T21:32:35;2.67;;;1.55;;
61336;SDS011;47212;41.326;2.104;2022-09-09T21:37:42;5.68;;;1.30;;
61336;SDS011;47212;41.326;2.104;2022-09-09T21:42:48;3.70;;;1.42;;
61336;SDS011;47212;41.326;2.104;2022-09-09T21:47:54;4.40;;;1.35;;
61336;SDS011;47212;41.326;2.104;2022-09-09T21:53:01;3.95;;;1.60;;
61336;SDS011;47212;41.326;2.104;2022-09-09T21:58:04;3.15;;;1.23;;
61336;SDS011;47212;41.326;2.104;2022-09-09T22:03:14;2.58;;;1.38;;
61336;SDS011;47212;41.326;2.104;2022-09-09T22:08:40;3.10;;;1.30;;
61336;SDS011;47212;41.326;2.104;2022-09-09T22:18:58;3.97;;;1.30;;
61336;SDS011;47212;41.326;2.104;2022-09-09T22:24:14;2.03;;;1.08;;
61336;SDS011;47212;41.326;2.104;2022-09-09T22:29:21;3.63;;;1.40;;
61336;SDS011;47212;41.326;2.104;2022-09-09T22:34:27;1.83;;;1.00;;
61336;SDS011;47212;41.326;2.104;2022-09-09T22:39:42;3.42;;;1.30;;
61336;SDS011;47212;41.326;2.104;2022-09-09T22:44:46;1.88;;;1.05;;
61336;SDS011;47212;41.326;2.104;2022-09-09T22:49:52;2.85;;;1.40;;
61336;SDS011;47212;41.326;2.104;2022-09-09T22:55:04;3.80;;;1.55;;
61336;SDS011;47212;41.326;2.104;2022-09-09T23:00:20;3.67;;;1.70;;
61336;SDS011;47212;41.326;2.104;2022-09-09T23:05:51;2.40;;;1.38;;
61336;SDS011;47212;41.326;2.104;2022-09-09T23:11:05;1.40;;;1.17;;
61336;SDS011;47212;41.326;2.104;2022-09-09T23:16:16;2.65;;;1.38;;
61336;SDS011;47212;41.326;2.104;2022-09-09T23:21:27;1.48;;;1.05;;
61336;SDS011;47212;41.326;2.104;2022-09-09T23:26:34;2.47;;;1.13;;
61336;SDS011;47212;41.326;2.104;2022-09-09T23:31:41;2.10;;;1.10;;
61336;SDS011;47212;41.326;2.104;2022-09-09T23:36:55;1.98;;;1.30;;
61336;SDS011;47212;41.326;2.104;2022-09-09T23:42:03;4.28;;;1.00;;
61336;SDS011;47212;41.326;2.104;2022-09-09T23:47:14;4.57;;;2.10;;
61336;SDS011;47212;41.326;2.104;2022-09-09T23:52:21;2.45;;;1.70;;
61336;SDS011;47212;41.326;2.104;2022-09-09T23:57:27;1.40;;;1.30;;
